createdAt,value
2023-03-22T00:01:30.831Z,69.67
2023-03-22T00:03:58.888Z,64.37
2023-03-22T00:06:26.654Z,65.87
2023-03-22T00:08:54.656Z,57.53
2023-03-22T00:11:25.455Z,61.53
2023-03-22T00:13:54.727Z,76.60
2023-03-22T00:16:22.466Z,49.17
2023-03-22T00:18:49.629Z,63.77
2023-03-22T00:21:17.915Z,64.03
2023-03-22T00:23:45.922Z,44.50
2023-03-22T00:26:14.840Z,52.93
2023-03-22T00:28:42.665Z,39.13
2023-03-22T00:31:10.880Z,48.47
2023-03-22T00:33:38.548Z,61.67
2023-03-22T00:36:12.234Z,53.93
2023-03-22T00:38:42.814Z,65.17
2023-03-22T00:41:22.660Z,67.60
2023-03-22T00:43:51.858Z,55.97
2023-03-22T00:46:21.117Z,56.77
2023-03-22T00:48:49.034Z,65.60
2023-03-22T00:51:16.959Z,75.87
2023-03-22T00:53:44.422Z,62.90
2023-03-22T00:56:15.563Z,60.80
2023-03-22T00:58:43.646Z,61.03
2023-03-22T01:01:15.014Z,59.87
2023-03-22T01:03:44.351Z,64.00
2023-03-22T01:06:12.010Z,71.27
2023-03-22T01:08:39.501Z,69.10
2023-03-22T01:11:08.630Z,65.87
2023-03-22T01:13:37.743Z,59.27
2023-03-22T01:16:07.000Z,63.83
2023-03-22T01:18:35.779Z,60.77
2023-03-22T01:21:03.598Z,54.93
2023-03-22T01:23:31.040Z,78.90
2023-03-22T01:25:58.087Z,67.23
2023-03-22T01:28:27.147Z,55.53
2023-03-22T01:30:55.933Z,70.73
2023-03-22T01:33:23.115Z,56.63
2023-03-22T01:35:50.434Z,67.63
2023-03-22T01:38:17.623Z,34.83
2023-03-22T01:40:44.659Z,59.33
2023-03-22T01:43:17.202Z,51.67
2023-03-22T01:45:53.143Z,51.03
2023-03-22T01:48:48.509Z,54.93
2023-03-22T01:51:25.053Z,54.70
2023-03-22T01:54:14.201Z,64.33
2023-03-22T01:56:42.175Z,68.70
2023-03-22T01:59:14.227Z,67.77
2023-03-22T02:01:41.607Z,58.87
2023-03-22T02:04:19.975Z,75.23
2023-03-22T02:06:48.187Z,79.80
2023-03-22T02:09:21.962Z,82.77
2023-03-22T02:12:13.217Z,67.50
2023-03-22T02:15:11.090Z,68.50
2023-03-22T02:18:20.625Z,78.20
2023-03-22T02:21:34.920Z,86.73
2023-03-22T02:25:19.520Z,80.67
2023-03-22T02:28:53.385Z,73.00
2023-03-22T02:31:48.568Z,63.13
2023-03-22T02:35:06.408Z,59.40
2023-03-22T02:38:12.438Z,65.50
2023-03-22T02:41:22.460Z,71.27
2023-03-22T02:44:47.544Z,78.83
2023-03-22T02:47:43.435Z,64.80
2023-03-22T02:50:29.220Z,69.20
2023-03-22T02:53:19.054Z,75.97
2023-03-22T02:55:57.530Z,72.87
2023-03-22T02:58:48.007Z,76.60
2023-03-22T03:01:32.954Z,75.93
2023-03-22T03:04:07.288Z,69.33
2023-03-22T03:06:40.671Z,64.07
2023-03-22T03:09:08.750Z,69.47
2023-03-22T03:11:38.801Z,65.93
2023-03-22T03:14:05.917Z,65.30
2023-03-22T03:16:36.647Z,57.83
2023-03-22T03:19:41.041Z,54.63
2023-03-22T03:22:47.134Z,61.50
2023-03-22T03:25:46.691Z,62.10
2023-03-22T03:28:57.761Z,64.10
2023-03-22T03:31:55.047Z,65.97
2023-03-22T03:34:49.613Z,74.13
2023-03-22T03:37:23.944Z,77.73
2023-03-22T03:40:36.196Z,80.37
2023-03-22T03:43:06.225Z,69.53
2023-03-22T03:45:35.916Z,80.60
2023-03-22T03:48:17.010Z,62.60
2023-03-22T03:50:44.312Z,64.07
2023-03-22T03:53:11.382Z,50.97
2023-03-22T03:55:38.504Z,61.13
2023-03-22T03:58:08.896Z,56.27
2023-03-22T04:00:40.069Z,48.80
2023-03-22T04:03:07.334Z,52.63
2023-03-22T04:05:35.152Z,52.53
2023-03-22T04:08:02.231Z,53.50
2023-03-22T04:10:29.280Z,55.97
2023-03-22T04:12:56.563Z,48.07
2023-03-22T04:15:24.266Z,37.20
2023-03-22T04:17:51.329Z,55.20
2023-03-22T04:20:19.485Z,46.13
2023-03-22T04:22:48.340Z,54.03
2023-03-22T04:25:18.758Z,43.33
2023-03-22T04:27:51.378Z,53.23
2023-03-22T04:30:22.793Z,50.47
2023-03-22T04:32:50.574Z,51.73
2023-03-22T04:35:18.197Z,49.13
2023-03-22T04:37:45.593Z,43.63
2023-03-22T04:40:15.970Z,48.77
2023-03-22T04:42:45.439Z,48.00
2023-03-22T04:45:13.923Z,43.67
2023-03-22T04:47:41.225Z,38.70
2023-03-22T04:50:09.557Z,41.97
2023-03-22T04:52:39.943Z,48.30
2023-03-22T04:55:07.575Z,42.47
2023-03-22T04:57:35.694Z,45.40
2023-03-22T05:00:06.627Z,46.53
2023-03-22T05:02:34.839Z,47.43
2023-03-22T05:05:01.884Z,41.70
2023-03-22T05:07:29.444Z,45.63
2023-03-22T05:09:56.465Z,33.03
2023-03-22T05:12:23.626Z,46.87
2023-03-22T05:14:50.706Z,38.83
2023-03-22T05:17:18.364Z,37.50
2023-03-22T05:19:45.764Z,41.47
2023-03-22T05:22:13.892Z,40.30
2023-03-22T05:24:41.064Z,37.13
2023-03-22T05:27:08.409Z,41.10
2023-03-22T05:29:36.953Z,38.73
2023-03-22T05:32:04.598Z,34.83
2023-03-22T05:34:35.779Z,41.27
2023-03-22T05:37:03.556Z,35.70
2023-03-22T05:39:31.274Z,39.50
2023-03-22T05:41:58.329Z,49.10
2023-03-22T05:44:25.604Z,42.80
2023-03-22T05:46:52.691Z,42.40
2023-03-22T05:49:21.133Z,41.50
2023-03-22T05:51:48.428Z,44.80
2023-03-22T05:54:15.943Z,45.80
2023-03-22T05:56:44.130Z,42.13
2023-03-22T05:59:11.392Z,48.73
2023-03-22T06:01:58.259Z,44.03
2023-03-22T06:04:28.120Z,46.33
2023-03-22T06:06:55.466Z,47.93
2023-03-22T06:09:22.788Z,39.77
2023-03-22T06:11:49.933Z,48.07
2023-03-22T06:14:17.047Z,42.37
2023-03-22T06:16:44.214Z,38.37
2023-03-22T06:19:11.259Z,41.37
2023-03-22T06:21:38.323Z,39.07
2023-03-22T06:24:05.783Z,38.03
2023-03-22T06:26:32.924Z,42.90
2023-03-22T06:29:00.172Z,41.97
2023-03-22T06:31:27.544Z,37.07
2023-03-22T06:33:55.935Z,38.87
2023-03-22T06:36:23.148Z,41.93
2023-03-22T06:38:50.309Z,34.80
2023-03-22T06:41:17.450Z,41.60
2023-03-22T06:43:44.535Z,34.57
2023-03-22T06:46:11.789Z,37.30
2023-03-22T06:48:38.892Z,33.73
2023-03-22T06:51:06.864Z,33.73
2023-03-22T06:53:36.624Z,33.97
2023-03-22T06:56:04.241Z,34.07
2023-03-22T06:58:31.334Z,31.07
2023-03-22T07:00:58.463Z,30.03
2023-03-22T07:03:25.878Z,29.70
2023-03-22T07:06:00.859Z,26.70
2023-03-22T07:08:28.057Z,28.07
2023-03-22T07:10:55.262Z,25.83
2023-03-22T07:13:22.337Z,31.60
2023-03-22T07:15:49.742Z,30.07
2023-03-22T07:18:17.067Z,31.30
2023-03-22T07:20:45.721Z,29.93
2023-03-22T07:23:13.731Z,30.93
2023-03-22T07:25:41.301Z,26.27
2023-03-22T07:28:10.361Z,29.20
2023-03-22T07:30:41.481Z,26.17
2023-03-22T07:33:10.907Z,31.73
2023-03-22T07:35:41.226Z,26.73
2023-03-22T07:38:08.415Z,28.87
2023-03-22T07:40:36.949Z,26.17
2023-03-22T07:43:04.336Z,23.23
2023-03-22T07:45:31.545Z,26.93
2023-03-22T07:47:58.664Z,25.10
2023-03-22T07:50:25.866Z,26.30
2023-03-22T07:52:55.436Z,29.57
2023-03-22T07:55:22.724Z,21.20
2023-03-22T07:57:49.894Z,20.00
2023-03-22T08:00:18.529Z,21.43
2023-03-22T08:02:46.190Z,20.40
2023-03-22T08:05:13.832Z,27.00
2023-03-22T08:07:41.299Z,25.47
2023-03-22T08:10:09.233Z,25.30
2023-03-22T08:12:36.613Z,23.70
2023-03-22T08:15:04.210Z,22.43
2023-03-22T08:17:31.475Z,17.37
2023-03-22T08:19:58.596Z,18.87
2023-03-22T08:22:29.558Z,22.20
2023-03-22T08:24:56.924Z,20.00
2023-03-22T08:27:24.123Z,19.57
2023-03-22T08:29:51.551Z,20.13
2023-03-22T08:32:19.197Z,21.10
2023-03-22T08:34:46.596Z,19.23
2023-03-22T08:37:15.022Z,22.17
2023-03-22T08:39:44.080Z,18.27
2023-03-22T08:42:11.150Z,20.23
2023-03-22T08:44:38.357Z,18.30
2023-03-22T08:47:05.795Z,16.07
2023-03-22T08:49:34.520Z,17.93
2023-03-22T08:52:01.729Z,24.33
2023-03-22T08:54:38.216Z,17.53
2023-03-22T08:57:09.328Z,22.03
2023-03-22T08:59:36.525Z,16.97
2023-03-22T09:02:03.786Z,19.63
2023-03-22T09:04:31.287Z,18.43
2023-03-22T09:06:58.356Z,20.30
2023-03-22T09:09:25.597Z,17.00
2023-03-22T09:11:52.802Z,23.50
2023-03-22T09:14:19.899Z,17.10
2023-03-22T09:16:47.861Z,20.80
2023-03-22T09:19:14.992Z,15.57
2023-03-22T09:21:42.740Z,22.63
2023-03-22T09:24:09.970Z,18.77
2023-03-22T09:26:37.540Z,23.33
2023-03-22T09:29:04.742Z,17.33
2023-03-22T09:31:32.084Z,17.90
2023-03-22T09:33:59.348Z,17.53
2023-03-22T09:36:26.450Z,16.33
2023-03-22T09:38:53.581Z,18.50
2023-03-22T09:41:41.483Z,17.90
2023-03-22T09:44:32.580Z,14.63
2023-03-22T09:47:02.110Z,15.77
2023-03-22T09:49:53.034Z,16.43
2023-03-22T09:52:21.581Z,16.57
2023-03-22T09:54:50.437Z,14.37
2023-03-22T09:57:37.464Z,15.67
2023-03-22T10:00:50.497Z,13.17
2023-03-22T10:04:16.454Z,12.90
2023-03-22T10:06:54.761Z,16.87
2023-03-22T10:10:00.639Z,17.13
2023-03-22T10:12:59.567Z,14.90
2023-03-22T10:16:03.161Z,13.67
2023-03-22T10:18:47.113Z,17.63
2023-03-22T10:21:17.863Z,14.23
2023-03-22T10:24:11.268Z,15.40
2023-03-22T10:26:45.840Z,16.00
2023-03-22T10:29:32.291Z,10.80
2023-03-22T10:32:17.919Z,16.40
2023-03-22T10:34:46.679Z,13.10
2023-03-22T10:37:29.212Z,13.13
2023-03-22T10:40:00.259Z,12.87
2023-03-22T10:42:31.150Z,10.50
2023-03-22T10:45:13.169Z,13.73
2023-03-22T10:47:58.142Z,9.80
2023-03-22T10:50:39.335Z,10.00
2023-03-22T10:53:29.404Z,13.73
2023-03-22T10:55:57.470Z,12.77
2023-03-22T10:58:34.522Z,9.17
2023-03-22T11:01:33.573Z,12.30
2023-03-22T11:04:03.765Z,9.50
2023-03-22T11:06:38.770Z,8.13
2023-03-22T11:09:32.229Z,9.73
2023-03-22T11:12:00.952Z,9.50
2023-03-22T11:14:37.510Z,7.40
2023-03-22T11:17:10.163Z,8.88
2023-03-22T11:20:01.912Z,6.90
2023-03-22T11:22:42.674Z,13.80
2023-03-22T11:25:38.436Z,9.97
2023-03-22T11:28:07.707Z,8.05
2023-03-22T11:30:36.238Z,7.80
2023-03-22T11:33:17.325Z,10.98
2023-03-22T11:35:53.356Z,9.47
2023-03-22T11:38:48.255Z,7.67
2023-03-22T11:41:35.129Z,9.43
2023-03-22T11:44:15.795Z,9.48
2023-03-22T11:47:00.559Z,7.15
2023-03-22T11:49:51.607Z,7.40
2023-03-22T11:52:26.067Z,6.50
2023-03-22T11:54:55.716Z,9.00
2023-03-22T11:57:31.426Z,10.80
2023-03-22T12:00:21.373Z,6.07
2023-03-22T12:03:06.261Z,5.10
2023-03-22T12:05:38.384Z,7.63
2023-03-22T12:08:42.827Z,6.78
2023-03-22T12:11:51.698Z,5.53
2023-03-22T12:14:41.647Z,5.72
2023-03-22T12:17:28.651Z,8.97
2023-03-22T12:20:30.956Z,5.05
2023-03-22T12:22:58.774Z,6.75
2023-03-22T12:25:35.535Z,3.80
2023-03-22T12:28:18.040Z,4.55
2023-03-22T12:30:53.786Z,6.70
2023-03-22T12:33:35.411Z,7.13
2023-03-22T12:36:06.860Z,5.22
2023-03-22T12:38:59.152Z,2.75
2023-03-22T12:44:46.475Z,4.00
2023-03-22T12:47:27.437Z,5.32
2023-03-22T12:50:11.987Z,6.05
2023-03-22T12:52:47.653Z,4.97
2023-03-22T12:55:40.916Z,4.47
2023-03-22T12:58:24.202Z,6.63
2023-03-22T13:01:20.973Z,4.68
2023-03-22T13:03:54.531Z,4.45
2023-03-22T13:06:50.634Z,4.00
2023-03-22T13:09:27.669Z,4.07
2023-03-22T13:12:16.492Z,10.50
2023-03-22T13:15:41.310Z,5.53
2023-03-22T13:18:40.091Z,6.82
2023-03-22T13:21:31.828Z,5.88
2023-03-22T13:24:16.869Z,10.50
2023-03-22T13:26:51.584Z,4.53
2023-03-22T13:29:37.477Z,4.53
2023-03-22T13:32:28.408Z,8.70
2023-03-22T13:34:56.567Z,5.45
2023-03-22T13:37:47.070Z,10.57
2023-03-22T13:40:34.832Z,5.35
2023-03-22T13:43:26.187Z,4.85
2023-03-22T13:46:19.987Z,4.35
2023-03-22T13:48:47.593Z,7.07
2023-03-22T13:51:25.393Z,4.47
2023-03-22T13:54:18.020Z,5.25
2023-03-22T13:57:01.545Z,3.05
2023-03-22T14:00:06.855Z,3.67
2023-03-22T14:02:42.173Z,5.85
2023-03-22T14:05:22.358Z,4.43
2023-03-22T14:08:00.151Z,3.58
2023-03-22T14:10:44.372Z,3.08
2023-03-22T14:13:48.014Z,2.60
2023-03-22T14:16:48.772Z,2.05
2023-03-22T14:19:31.801Z,4.88
